sensor_id;sensor_type;location;lat;lon;timestamp;P1;durP1;ratioP1;P2;durP2;ratioP2
25213;SDS011;13160;51.834;4.706;2023-07-31T00:01:52;38.63;;;9.77;;
25213;SDS011;13160;51.834;4.706;2023-07-31T00:04:22;33.17;;;9.18;;
25213;SDS011;13160;51.834;4.706;2023-07-31T00:06:52;29.15;;;9.10;;
25213;SDS011;13160;51.834;4.706;2023-07-31T00:09:21;29.48;;;9.02;;
25213;SDS011;13160;51.834;4.706;2023-07-31T00:12:23;31.63;;;9.82;;
25213;SDS011;13160;51.834;4.706;2023-07-31T00:14:52;35.08;;;10.27;;
25213;SDS011;13160;51.834;4.706;2023-07-31T00:17:21;32.42;;;10.65;;
25213;SDS011;13160;51.834;4.706;2023-07-31T00:19:51;31.58;;;9.93;;
25213;SDS011;13160;51.834;4.706;2023-07-31T00:22:35;33.45;;;10.27;;
25213;SDS011;13160;51.834;4.706;2023-07-31T00:25:11;33.42;;;11.10;;
25213;SDS011;13160;51.834;4.706;2023-07-31T00:27:54;31.30;;;9.95;;
25213;SDS011;13160;51.834;4.706;2023-07-31T00:30:41;25.13;;;9.48;;
25213;SDS011;13160;51.834;4.706;2023-07-31T00:33:10;29.65;;;9.23;;
25213;SDS011;13160;51.834;4.706;2023-07-31T00:35:39;39.25;;;11.00;;
25213;SDS011;13160;51.834;4.706;2023-07-31T00:38:17;32.40;;;10.70;;
25213;SDS011;13160;51.834;4.706;2023-07-31T00:40:46;30.75;;;10.38;;
25213;SDS011;13160;51.834;4.706;2023-07-31T00:43:15;32.40;;;10.32;;
25213;SDS011;13160;51.834;4.706;2023-07-31T00:45:46;37.45;;;10.70;;
25213;SDS011;13160;51.834;4.706;2023-07-31T00:48:15;36.38;;;11.05;;
25213;SDS011;13160;51.834;4.706;2023-07-31T00:50:47;32.15;;;10.02;;
25213;SDS011;13160;51.834;4.706;2023-07-31T00:53:17;37.63;;;9.90;;
25213;SDS011;13160;51.834;4.706;2023-07-31T00:55:45;39.22;;;10.02;;
25213;SDS011;13160;51.834;4.706;2023-07-31T00:58:14;36.97;;;9.07;;
25213;SDS011;13160;51.834;4.706;2023-07-31T01:00:43;34.58;;;10.48;;
25213;SDS011;13160;51.834;4.706;2023-07-31T01:03:12;27.73;;;9.95;;
25213;SDS011;13160;51.834;4.706;2023-07-31T01:05:43;34.65;;;9.40;;
25213;SDS011;13160;51.834;4.706;2023-07-31T01:08:24;34.65;;;9.82;;
25213;SDS011;13160;51.834;4.706;2023-07-31T01:11:02;32.85;;;10.20;;
25213;SDS011;13160;51.834;4.706;2023-07-31T01:13:39;34.72;;;8.85;;
25213;SDS011;13160;51.834;4.706;2023-07-31T01:16:23;32.00;;;9.45;;
25213;SDS011;13160;51.834;4.706;2023-07-31T01:18:52;36.97;;;9.63;;
25213;SDS011;13160;51.834;4.706;2023-07-31T01:21:28;42.67;;;9.98;;
25213;SDS011;13160;51.834;4.706;2023-07-31T01:24:20;41.33;;;9.90;;
25213;SDS011;13160;51.834;4.706;2023-07-31T01:27:26;35.15;;;9.75;;
25213;SDS011;13160;51.834;4.706;2023-07-31T01:30:11;31.88;;;9.70;;
25213;SDS011;13160;51.834;4.706;2023-07-31T01:32:50;25.52;;;8.93;;
25213;SDS011;13160;51.834;4.706;2023-07-31T01:35:35;28.65;;;10.13;;
25213;SDS011;13160;51.834;4.706;2023-07-31T01:38:07;30.48;;;9.13;;
25213;SDS011;13160;51.834;4.706;2023-07-31T01:40:54;31.08;;;8.95;;
25213;SDS011;13160;51.834;4.706;2023-07-31T01:43:41;32.65;;;8.85;;
25213;SDS011;13160;51.834;4.706;2023-07-31T01:46:13;30.23;;;8.68;;
25213;SDS011;13160;51.834;4.706;2023-07-31T01:48:42;29.75;;;9.45;;
25213;SDS011;13160;51.834;4.706;2023-07-31T01:51:10;27.50;;;8.85;;
25213;SDS011;13160;51.834;4.706;2023-07-31T01:53:39;34.00;;;9.60;;
25213;SDS011;13160;51.834;4.706;2023-07-31T01:56:10;32.88;;;9.10;;
25213;SDS011;13160;51.834;4.706;2023-07-31T01:58:43;27.90;;;9.30;;
25213;SDS011;13160;51.834;4.706;2023-07-31T02:01:12;30.98;;;10.25;;
25213;SDS011;13160;51.834;4.706;2023-07-31T02:03:40;31.42;;;10.00;;
25213;SDS011;13160;51.834;4.706;2023-07-31T02:06:46;32.92;;;10.23;;
25213;SDS011;13160;51.834;4.706;2023-07-31T02:09:15;33.88;;;10.68;;
25213;SDS011;13160;51.834;4.706;2023-07-31T02:11:44;30.33;;;10.23;;
25213;SDS011;13160;51.834;4.706;2023-07-31T02:14:14;32.72;;;10.07;;
25213;SDS011;13160;51.834;4.706;2023-07-31T02:16:43;27.77;;;9.88;;
25213;SDS011;13160;51.834;4.706;2023-07-31T02:19:11;37.33;;;11.60;;
25213;SDS011;13160;51.834;4.706;2023-07-31T02:21:40;37.05;;;11.05;;
25213;SDS011;13160;51.834;4.706;2023-07-31T02:24:09;33.75;;;10.73;;
25213;SDS011;13160;51.834;4.706;2023-07-31T02:27:00;28.90;;;10.05;;
25213;SDS011;13160;51.834;4.706;2023-07-31T02:29:30;29.60;;;10.75;;
25213;SDS011;13160;51.834;4.706;2023-07-31T02:32:14;34.15;;;10.60;;
25213;SDS011;13160;51.834;4.706;2023-07-31T02:35:02;32.20;;;10.40;;
25213;SDS011;13160;51.834;4.706;2023-07-31T02:37:33;29.58;;;9.82;;
25213;SDS011;13160;51.834;4.706;2023-07-31T02:40:03;25.30;;;10.10;;
25213;SDS011;13160;51.834;4.706;2023-07-31T02:42:33;23.58;;;9.02;;
25213;SDS011;13160;51.834;4.706;2023-07-31T02:45:04;31.30;;;10.60;;
25213;SDS011;13160;51.834;4.706;2023-07-31T02:47:48;28.50;;;9.77;;
25213;SDS011;13160;51.834;4.706;2023-07-31T02:50:17;32.60;;;10.35;;
25213;SDS011;13160;51.834;4.706;2023-07-31T02:52:46;32.10;;;10.38;;
25213;SDS011;13160;51.834;4.706;2023-07-31T02:55:14;30.23;;;9.50;;
25213;SDS011;13160;51.834;4.706;2023-07-31T02:57:43;30.40;;;9.48;;
25213;SDS011;13160;51.834;4.706;2023-07-31T03:00:18;30.67;;;10.02;;
25213;SDS011;13160;51.834;4.706;2023-07-31T03:02:49;31.02;;;9.23;;
25213;SDS011;13160;51.834;4.706;2023-07-31T03:05:20;26.80;;;9.50;;
25213;SDS011;13160;51.834;4.706;2023-07-31T03:07:49;26.08;;;10.13;;
25213;SDS011;13160;51.834;4.706;2023-07-31T03:10:22;24.63;;;9.90;;
25213;SDS011;13160;51.834;4.706;2023-07-31T03:12:51;30.38;;;10.18;;
25213;SDS011;13160;51.834;4.706;2023-07-31T03:15:21;27.00;;;10.18;;
25213;SDS011;13160;51.834;4.706;2023-07-31T03:17:49;33.30;;;9.68;;
25213;SDS011;13160;51.834;4.706;2023-07-31T03:20:18;29.05;;;9.98;;
25213;SDS011;13160;51.834;4.706;2023-07-31T03:22:47;30.33;;;8.88;;
25213;SDS011;13160;51.834;4.706;2023-07-31T03:25:16;26.55;;;9.00;;
25213;SDS011;13160;51.834;4.706;2023-07-31T03:27:48;29.27;;;8.93;;
25213;SDS011;13160;51.834;4.706;2023-07-31T03:30:24;28.48;;;9.40;;
25213;SDS011;13160;51.834;4.706;2023-07-31T03:32:52;30.92;;;9.70;;
25213;SDS011;13160;51.834;4.706;2023-07-31T03:35:21;23.45;;;8.63;;
25213;SDS011;13160;51.834;4.706;2023-07-31T03:37:50;28.38;;;9.20;;
25213;SDS011;13160;51.834;4.706;2023-07-31T03:40:21;24.70;;;8.98;;
25213;SDS011;13160;51.834;4.706;2023-07-31T03:42:50;22.35;;;9.18;;
25213;SDS011;13160;51.834;4.706;2023-07-31T03:45:29;24.63;;;9.73;;
25213;SDS011;13160;51.834;4.706;2023-07-31T03:47:57;22.80;;;8.80;;
25213;SDS011;13160;51.834;4.706;2023-07-31T03:50:26;24.90;;;9.40;;
25213;SDS011;13160;51.834;4.706;2023-07-31T03:52:55;24.52;;;8.35;;
25213;SDS011;13160;51.834;4.706;2023-07-31T03:55:31;28.90;;;9.15;;
25213;SDS011;13160;51.834;4.706;2023-07-31T03:58:00;25.55;;;8.90;;
25213;SDS011;13160;51.834;4.706;2023-07-31T04:00:30;22.60;;;9.23;;
25213;SDS011;13160;51.834;4.706;2023-07-31T04:02:59;25.88;;;9.18;;
25213;SDS011;13160;51.834;4.706;2023-07-31T04:05:29;23.60;;;8.40;;
25213;SDS011;13160;51.834;4.706;2023-07-31T04:08:00;30.38;;;8.57;;
25213;SDS011;13160;51.834;4.706;2023-07-31T04:10:28;22.75;;;7.70;;
25213;SDS011;13160;51.834;4.706;2023-07-31T04:12:59;21.58;;;7.88;;
25213;SDS011;13160;51.834;4.706;2023-07-31T04:15:27;23.10;;;7.70;;
25213;SDS011;13160;51.834;4.706;2023-07-31T04:17:57;19.00;;;7.93;;
25213;SDS011;13160;51.834;4.706;2023-07-31T04:20:26;19.75;;;8.13;;
25213;SDS011;13160;51.834;4.706;2023-07-31T04:22:54;19.00;;;7.50;;
25213;SDS011;13160;51.834;4.706;2023-07-31T04:25:22;20.58;;;7.55;;
25213;SDS011;13160;51.834;4.706;2023-07-31T04:27:51;23.35;;;8.07;;
25213;SDS011;13160;51.834;4.706;2023-07-31T04:30:21;22.15;;;6.97;;
25213;SDS011;13160;51.834;4.706;2023-07-31T04:32:49;18.58;;;7.03;;
25213;SDS011;13160;51.834;4.706;2023-07-31T04:35:19;18.70;;;7.28;;
25213;SDS011;13160;51.834;4.706;2023-07-31T04:37:50;20.67;;;6.80;;
25213;SDS011;13160;51.834;4.706;2023-07-31T04:40:20;21.10;;;6.68;;
25213;SDS011;13160;51.834;4.706;2023-07-31T04:42:57;22.88;;;8.07;;
25213;SDS011;13160;51.834;4.706;2023-07-31T04:45:26;19.00;;;7.03;;
25213;SDS011;13160;51.834;4.706;2023-07-31T04:47:55;18.58;;;7.88;;
25213;SDS011;13160;51.834;4.706;2023-07-31T04:50:27;21.92;;;7.80;;
25213;SDS011;13160;51.834;4.706;2023-07-31T04:52:56;16.83;;;7.43;;
25213;SDS011;13160;51.834;4.706;2023-07-31T04:55:25;20.67;;;6.68;;
25213;SDS011;13160;51.834;4.706;2023-07-31T04:58:12;27.35;;;7.13;;
25213;SDS011;13160;51.834;4.706;2023-07-31T05:00:44;27.95;;;8.02;;
25213;SDS011;13160;51.834;4.706;2023-07-31T05:03:16;27.58;;;7.95;;
25213;SDS011;13160;51.834;4.706;2023-07-31T05:05:46;22.27;;;8.63;;
25213;SDS011;13160;51.834;4.706;2023-07-31T05:08:14;23.63;;;7.93;;
25213;SDS011;13160;51.834;4.706;2023-07-31T05:10:51;24.25;;;7.93;;
25213;SDS011;13160;51.834;4.706;2023-07-31T05:13:23;14.93;;;6.95;;
25213;SDS011;13160;51.834;4.706;2023-07-31T05:15:54;21.58;;;7.15;;
25213;SDS011;13160;51.834;4.706;2023-07-31T05:18:25;19.42;;;6.85;;
25213;SDS011;13160;51.834;4.706;2023-07-31T05:20:57;18.35;;;6.53;;
25213;SDS011;13160;51.834;4.706;2023-07-31T05:23:28;19.58;;;6.05;;
25213;SDS011;13160;51.834;4.706;2023-07-31T05:26:02;18.38;;;6.38;;
25213;SDS011;13160;51.834;4.706;2023-07-31T05:28:49;14.75;;;5.72;;
25213;SDS011;13160;51.834;4.706;2023-07-31T05:31:32;15.52;;;5.78;;
25213;SDS011;13160;51.834;4.706;2023-07-31T05:34:05;16.08;;;6.03;;
25213;SDS011;13160;51.834;4.706;2023-07-31T05:36:35;12.40;;;5.55;;
25213;SDS011;13160;51.834;4.706;2023-07-31T05:39:04;17.67;;;5.20;;
25213;SDS011;13160;51.834;4.706;2023-07-31T05:41:35;12.75;;;5.13;;
25213;SDS011;13160;51.834;4.706;2023-07-31T05:44:14;16.58;;;6.15;;
25213;SDS011;13160;51.834;4.706;2023-07-31T05:46:43;12.95;;;5.93;;
25213;SDS011;13160;51.834;4.706;2023-07-31T05:49:14;17.83;;;6.70;;
25213;SDS011;13160;51.834;4.706;2023-07-31T05:51:44;17.25;;;6.03;;
25213;SDS011;13160;51.834;4.706;2023-07-31T05:54:13;19.50;;;6.57;;
25213;SDS011;13160;51.834;4.706;2023-07-31T05:56:42;15.82;;;6.18;;
25213;SDS011;13160;51.834;4.706;2023-07-31T05:59:11;15.50;;;6.75;;
25213;SDS011;13160;51.834;4.706;2023-07-31T06:01:41;17.48;;;6.28;;
25213;SDS011;13160;51.834;4.706;2023-07-31T06:04:12;20.67;;;6.60;;
25213;SDS011;13160;51.834;4.706;2023-07-31T06:06:41;18.10;;;7.13;;
25213;SDS011;13160;51.834;4.706;2023-07-31T06:09:11;20.52;;;7.35;;
25213;SDS011;13160;51.834;4.706;2023-07-31T06:11:40;24.95;;;7.55;;
25213;SDS011;13160;51.834;4.706;2023-07-31T06:14:08;22.15;;;8.55;;
25213;SDS011;13160;51.834;4.706;2023-07-31T06:16:37;14.65;;;7.10;;
25213;SDS011;13160;51.834;4.706;2023-07-31T06:19:07;16.95;;;7.65;;
25213;SDS011;13160;51.834;4.706;2023-07-31T06:21:36;20.50;;;7.07;;
25213;SDS011;13160;51.834;4.706;2023-07-31T06:24:05;16.38;;;7.05;;
25213;SDS011;13160;51.834;4.706;2023-07-31T06:26:35;17.02;;;6.95;;
25213;SDS011;13160;51.834;4.706;2023-07-31T06:29:04;18.60;;;6.80;;
25213;SDS011;13160;51.834;4.706;2023-07-31T06:31:32;16.48;;;6.00;;
25213;SDS011;13160;51.834;4.706;2023-07-31T06:34:01;17.45;;;6.10;;
25213;SDS011;13160;51.834;4.706;2023-07-31T06:36:29;13.23;;;6.43;;
25213;SDS011;13160;51.834;4.706;2023-07-31T06:38:58;14.80;;;6.57;;
25213;SDS011;13160;51.834;4.706;2023-07-31T06:41:26;12.38;;;5.22;;
25213;SDS011;13160;51.834;4.706;2023-07-31T06:43:56;12.88;;;5.35;;
25213;SDS011;13160;51.834;4.706;2023-07-31T06:46:27;13.35;;;5.75;;
25213;SDS011;13160;51.834;4.706;2023-07-31T06:48:55;10.43;;;5.65;;
25213;SDS011;13160;51.834;4.706;2023-07-31T06:51:24;12.10;;;4.95;;
25213;SDS011;13160;51.834;4.706;2023-07-31T06:53:52;11.20;;;5.05;;
25213;SDS011;13160;51.834;4.706;2023-07-31T06:56:21;11.30;;;5.20;;
25213;SDS011;13160;51.834;4.706;2023-07-31T06:58:49;10.27;;;4.75;;
25213;SDS011;13160;51.834;4.706;2023-07-31T07:01:19;10.27;;;4.22;;
25213;SDS011;13160;51.834;4.706;2023-07-31T07:03:48;10.55;;;4.40;;
25213;SDS011;13160;51.834;4.706;2023-07-31T07:06:17;8.98;;;4.18;;
25213;SDS011;13160;51.834;4.706;2023-07-31T07:08:45;10.13;;;4.32;;
25213;SDS011;13160;51.834;4.706;2023-07-31T07:11:14;10.55;;;4.25;;
25213;SDS011;13160;51.834;4.706;2023-07-31T07:13:42;10.88;;;4.97;;
25213;SDS011;13160;51.834;4.706;2023-07-31T07:16:11;10.18;;;4.13;;
25213;SDS011;13160;51.834;4.706;2023-07-31T07:18:41;10.00;;;3.75;;
25213;SDS011;13160;51.834;4.706;2023-07-31T07:21:29;8.95;;;3.63;;
25213;SDS011;13160;51.834;4.706;2023-07-31T07:23:57;7.85;;;3.78;;
25213;SDS011;13160;51.834;4.706;2023-07-31T07:26:26;7.13;;;3.70;;
25213;SDS011;13160;51.834;4.706;2023-07-31T07:28:54;10.55;;;4.25;;
25213;SDS011;13160;51.834;4.706;2023-07-31T07:31:26;7.22;;;4.03;;
25213;SDS011;13160;51.834;4.706;2023-07-31T07:33:57;8.48;;;3.85;;
25213;SDS011;13160;51.834;4.706;2023-07-31T07:36:27;7.80;;;3.72;;
25213;SDS011;13160;51.834;4.706;2023-07-31T07:38:58;7.15;;;3.67;;
25213;SDS011;13160;51.834;4.706;2023-07-31T07:41:27;10.13;;;3.88;;
25213;SDS011;13160;51.834;4.706;2023-07-31T07:43:55;7.40;;;3.42;;
25213;SDS011;13160;51.834;4.706;2023-07-31T07:46:24;9.57;;;4.00;;
25213;SDS011;13160;51.834;4.706;2023-07-31T07:48:57;6.50;;;3.30;;
25213;SDS011;13160;51.834;4.706;2023-07-31T07:51:26;9.25;;;3.67;;
25213;SDS011;13160;51.834;4.706;2023-07-31T07:53:56;7.47;;;3.67;;
25213;SDS011;13160;51.834;4.706;2023-07-31T07:56:25;7.80;;;3.60;;
25213;SDS011;13160;51.834;4.706;2023-07-31T07:58:54;4.93;;;2.88;;
25213;SDS011;13160;51.834;4.706;2023-07-31T08:01:22;13.25;;;5.45;;
25213;SDS011;13160;51.834;4.706;2023-07-31T08:03:54;7.45;;;3.70;;
25213;SDS011;13160;51.834;4.706;2023-07-31T08:06:24;5.13;;;3.60;;
25213;SDS011;13160;51.834;4.706;2023-07-31T08:08:52;6.20;;;3.50;;
25213;SDS011;13160;51.834;4.706;2023-07-31T08:11:24;8.27;;;3.50;;
25213;SDS011;13160;51.834;4.706;2023-07-31T08:13:53;8.60;;;4.03;;
25213;SDS011;13160;51.834;4.706;2023-07-31T08:16:23;9.10;;;4.03;;
25213;SDS011;13160;51.834;4.706;2023-07-31T08:18:51;7.22;;;4.57;;
25213;SDS011;13160;51.834;4.706;2023-07-31T08:21:21;10.35;;;4.60;;
25213;SDS011;13160;51.834;4.706;2023-07-31T08:23:50;7.25;;;4.10;;
25213;SDS011;13160;51.834;4.706;2023-07-31T08:26:19;8.50;;;4.10;;
25213;SDS011;13160;51.834;4.706;2023-07-31T08:28:48;6.38;;;4.00;;
25213;SDS011;13160;51.834;4.706;2023-07-31T08:31:17;7.07;;;4.07;;
25213;SDS011;13160;51.834;4.706;2023-07-31T08:33:46;6.40;;;4.28;;
25213;SDS011;13160;51.834;4.706;2023-07-31T08:36:14;7.15;;;4.00;;
25213;SDS011;13160;51.834;4.706;2023-07-31T08:38:43;8.70;;;4.18;;
25213;SDS011;13160;51.834;4.706;2023-07-31T08:41:14;8.88;;;4.93;;
25213;SDS011;13160;51.834;4.706;2023-07-31T08:43:44;6.63;;;4.57;;
25213;SDS011;13160;51.834;4.706;2023-07-31T08:46:14;10.88;;;5.82;;
25213;SDS011;13160;51.834;4.706;2023-07-31T08:48:42;9.43;;;5.40;;
25213;SDS011;13160;51.834;4.706;2023-07-31T08:51:11;9.50;;;4.75;;
25213;SDS011;13160;51.834;4.706;2023-07-31T08:53:41;8.25;;;4.60;;
25213;SDS011;13160;51.834;4.706;2023-07-31T08:56:10;11.32;;;4.63;;
25213;SDS011;13160;51.834;4.706;2023-07-31T08:58:43;10.23;;;4.97;;
25213;SDS011;13160;51.834;4.706;2023-07-31T09:01:13;7.22;;;4.65;;
25213;SDS011;13160;51.834;4.706;2023-07-31T09:03:43;8.00;;;5.00;;
25213;SDS011;13160;51.834;4.706;2023-07-31T09:06:13;8.90;;;4.75;;
25213;SDS011;13160;51.834;4.706;2023-07-31T09:08:46;8.38;;;5.47;;
25213;SDS011;13160;51.834;4.706;2023-07-31T09:11:16;9.45;;;5.80;;
25213;SDS011;13160;51.834;4.706;2023-07-31T09:13:45;9.27;;;5.65;;
25213;SDS011;13160;51.834;4.706;2023-07-31T09:16:14;13.02;;;5.60;;
25213;SDS011;13160;51.834;4.706;2023-07-31T09:18:55;14.20;;;6.57;;
25213;SDS011;13160;51.834;4.706;2023-07-31T09:21:25;12.95;;;6.45;;
25213;SDS011;13160;51.834;4.706;2023-07-31T09:23:54;10.23;;;6.40;;
25213;SDS011;13160;51.834;4.706;2023-07-31T09:26:32;11.30;;;6.18;;
25213;SDS011;13160;51.834;4.706;2023-07-31T09:29:03;13.98;;;6.05;;
25213;SDS011;13160;51.834;4.706;2023-07-31T09:31:38;8.55;;;6.22;;
25213;SDS011;13160;51.834;4.706;2023-07-31T09:34:08;9.48;;;5.97;;
25213;SDS011;13160;51.834;4.706;2023-07-31T09:36:43;10.73;;;5.60;;
25213;SDS011;13160;51.834;4.706;2023-07-31T09:39:13;9.43;;;5.90;;
25213;SDS011;13160;51.834;4.706;2023-07-31T09:41:54;12.77;;;5.65;;
25213;SDS011;13160;51.834;4.706;2023-07-31T09:44:37;9.82;;;5.63;;
25213;SDS011;13160;51.834;4.706;2023-07-31T09:47:20;8.43;;;5.68;;
25213;SDS011;13160;51.834;4.706;2023-07-31T09:49:52;8.85;;;5.20;;
25213;SDS011;13160;51.834;4.706;2023-07-31T09:52:21;7.85;;;5.32;;
25213;SDS011;13160;51.834;4.706;2023-07-31T09:54:49;7.38;;;5.18;;
25213;SDS011;13160;51.834;4.706;2023-07-31T09:57:19;12.20;;;5.70;;
25213;SDS011;13160;51.834;4.706;2023-07-31T09:59:52;11.60;;;5.90;;
25213;SDS011;13160;51.834;4.706;2023-07-31T10:02:22;6.20;;;5.07;;
25213;SDS011;13160;51.834;4.706;2023-07-31T10:04:50;9.07;;;5.30;;
25213;SDS011;13160;51.834;4.706;2023-07-31T10:07:25;7.63;;;4.97;;
25213;SDS011;13160;51.834;4.706;2023-07-31T10:10:08;6.63;;;4.78;;
25213;SDS011;13160;51.834;4.706;2023-07-31T10:12:43;8.93;;;5.20;;
25213;SDS011;13160;51.834;4.706;2023-07-31T10:15:16;6.93;;;4.63;;
25213;SDS011;13160;51.834;4.706;2023-07-31T10:17:46;6.30;;;4.60;;
25213;SDS011;13160;51.834;4.706;2023-07-31T10:20:16;8.23;;;4.90;;
25213;SDS011;13160;51.834;4.706;2023-07-31T10:22:45;7.85;;;5.50;;
25213;SDS011;13160;51.834;4.706;2023-07-31T10:25:15;7.93;;;5.43;;
25213;SDS011;13160;51.834;4.706;2023-07-31T10:27:47;9.98;;;5.53;;
25213;SDS011;13160;51.834;4.706;2023-07-31T10:30:17;7.95;;;4.85;;
25213;SDS011;13160;51.834;4.706;2023-07-31T10:32:49;9.75;;;5.30;;
25213;SDS011;13160;51.834;4.706;2023-07-31T10:35:19;10.15;;;5.53;;
25213;SDS011;13160;51.834;4.706;2023-07-31T10:37:49;8.13;;;5.00;;
25213;SDS011;13160;51.834;4.706;2023-07-31T10:40:23;8.30;;;4.70;;
25213;SDS011;13160;51.834;4.706;2023-07-31T10:42:56;7.22;;;5.32;;
25213;SDS011;13160;51.834;4.706;2023-07-31T10:45:26;9.30;;;5.80;;
25213;SDS011;13160;51.834;4.706;2023-07-31T10:48:00;13.52;;;5.85;;
25213;SDS011;13160;51.834;4.706;2023-07-31T10:50:31;7.68;;;5.63;;
25213;SDS011;13160;51.834;4.706;2023-07-31T10:53:00;8.70;;;5.70;;
25213;SDS011;13160;51.834;4.706;2023-07-31T10:55:32;9.15;;;5.93;;
25213;SDS011;13160;51.834;4.706;2023-07-31T10:58:09;9.15;;;5.97;;
25213;SDS011;13160;51.834;4.706;2023-07-31T11:00:40;9.32;;;5.47;;
25213;SDS011;13160;51.834;4.706;2023-07-31T11:03:13;9.73;;;5.18;;
25213;SDS011;13160;51.834;4.706;2023-07-31T11:05:44;9.68;;;5.22;;
25213;SDS011;13160;51.834;4.706;2023-07-31T11:08:15;6.70;;;5.07;;
25213;SDS011;13160;51.834;4.706;2023-07-31T11:10:46;10.23;;;4.70;;
25213;SDS011;13160;51.834;4.706;2023-07-31T11:13:17;8.93;;;4.63;;
25213;SDS011;13160;51.834;4.706;2023-07-31T11:15:45;8.02;;;4.50;;
25213;SDS011;13160;51.834;4.706;2023-07-31T11:18:14;8.43;;;4.50;;
25213;SDS011;13160;51.834;4.706;2023-07-31T11:20:43;8.32;;;4.05;;
25213;SDS011;13160;51.834;4.706;2023-07-31T11:23:12;7.50;;;3.83;;
25213;SDS011;13160;51.834;4.706;2023-07-31T11:25:44;8.77;;;4.05;;
25213;SDS011;13160;51.834;4.706;2023-07-31T11:28:13;8.85;;;4.25;;
25213;SDS011;13160;51.834;4.706;2023-07-31T11:30:45;6.97;;;4.22;;
25213;SDS011;13160;51.834;4.706;2023-07-31T11:33:14;7.50;;;4.25;;
25213;SDS011;13160;51.834;4.706;2023-07-31T11:35:45;5.35;;;3.80;;
25213;SDS011;13160;51.834;4.706;2023-07-31T11:38:20;9.07;;;4.53;;
25213;SDS011;13160;51.834;4.706;2023-07-31T11:40:50;6.30;;;4.70;;
25213;SDS011;13160;51.834;4.706;2023-07-31T11:43:24;12.23;;;4.90;;
25213;SDS011;13160;51.834;4.706;2023-07-31T11:45:55;7.38;;;5.15;;
25213;SDS011;13160;51.834;4.706;2023-07-31T11:48:30;7.90;;;5.00;;
25213;SDS011;13160;51.834;4.706;2023-07-31T11:51:02;8.07;;;4.60;;
25213;SDS011;13160;51.834;4.706;2023-07-31T11:53:36;6.00;;;4.45;;
25213;SDS011;13160;51.834;4.706;2023-07-31T11:56:10;8.35;;;4.55;;
25213;SDS011;13160;51.834;4.706;2023-07-31T11:58:43;10.65;;;4.80;;
25213;SDS011;13160;51.834;4.706;2023-07-31T12:01:15;7.45;;;4.30;;
25213;SDS011;13160;51.834;4.706;2023-07-31T12:03:46;7.57;;;4.35;;
25213;SDS011;13160;51.834;4.706;2023-07-31T12:06:16;8.07;;;4.47;;
25213;SDS011;13160;51.834;4.706;2023-07-31T12:08:47;6.68;;;4.32;;
25213;SDS011;13160;51.834;4.706;2023-07-31T12:11:20;8.88;;;4.47;;
25213;SDS011;13160;51.834;4.706;2023-07-31T12:13:49;7.15;;;4.43;;
25213;SDS011;13160;51.834;4.706;2023-07-31T12:47:27;8.27;;;4.75;;
25213;SDS011;13160;51.834;4.706;2023-07-31T12:49:56;6.68;;;4.03;;
25213;SDS011;13160;51.834;4.706;2023-07-31T12:52:25;6.95;;;4.70;;
25213;SDS011;13160;51.834;4.706;2023-07-31T12:54:57;5.88;;;4.32;;
25213;SDS011;13160;51.834;4.706;2023-07-31T12:57:26;7.47;;;4.75;;
25213;SDS011;13160;51.834;4.706;2023-07-31T12:59:55;7.35;;;4.55;;
25213;SDS011;13160;51.834;4.706;2023-07-31T13:02:24;6.40;;;4.97;;
25213;SDS011;13160;51.834;4.706;2023-07-31T13:04:55;7.45;;;4.72;;
25213;SDS011;13160;51.834;4.706;2023-07-31T13:07:24;7.60;;;5.50;;
25213;SDS011;13160;51.834;4.706;2023-07-31T13:14:27;9.18;;;5.68;;
25213;SDS011;13160;51.834;4.706;2023-07-31T13:16:56;10.57;;;6.55;;
25213;SDS011;13160;51.834;4.706;2023-07-31T13:19:27;10.20;;;5.55;;
25213;SDS011;13160;51.834;4.706;2023-07-31T13:21:58;9.80;;;5.90;;
25213;SDS011;13160;51.834;4.706;2023-07-31T13:24:27;9.27;;;5.45;;
25213;SDS011;13160;51.834;4.706;2023-07-31T13:26:56;9.13;;;5.47;;
25213;SDS011;13160;51.834;4.706;2023-07-31T13:29:27;8.55;;;5.35;;
25213;SDS011;13160;51.834;4.706;2023-07-31T13:32:02;9.10;;;5.70;;
25213;SDS011;13160;51.834;4.706;2023-07-31T13:34:39;9.40;;;5.55;;
25213;SDS011;13160;51.834;4.706;2023-07-31T13:37:08;10.77;;;6.32;;
25213;SDS011;13160;51.834;4.706;2023-07-31T13:39:40;11.98;;;8.20;;
25213;SDS011;13160;51.834;4.706;2023-07-31T13:42:13;13.80;;;9.43;;
25213;SDS011;13160;51.834;4.706;2023-07-31T13:44:52;10.05;;;7.53;;
25213;SDS011;13160;51.834;4.706;2023-07-31T13:47:33;8.80;;;6.60;;
25213;SDS011;13160;51.834;4.706;2023-07-31T13:50:05;9.02;;;6.53;;
25213;SDS011;13160;51.834;4.706;2023-07-31T13:52:38;12.65;;;6.32;;
25213;SDS011;13160;51.834;4.706;2023-07-31T13:55:10;8.23;;;6.15;;
25213;SDS011;13160;51.834;4.706;2023-07-31T13:57:39;7.72;;;4.22;;
25213;SDS011;13160;51.834;4.706;2023-07-31T14:00:11;7.53;;;4.78;;
25213;SDS011;13160;51.834;4.706;2023-07-31T14:02:42;8.10;;;4.22;;
25213;SDS011;13160;51.834;4.706;2023-07-31T14:05:12;8.70;;;5.25;;
25213;SDS011;13160;51.834;4.706;2023-07-31T14:07:41;9.98;;;5.40;;
25213;SDS011;13160;51.834;4.706;2023-07-31T14:10:11;8.50;;;5.32;;
25213;SDS011;13160;51.834;4.706;2023-07-31T14:12:40;10.95;;;6.97;;
25213;SDS011;13160;51.834;4.706;2023-07-31T14:15:11;13.63;;;8.35;;
25213;SDS011;13160;51.834;4.706;2023-07-31T14:17:42;10.63;;;8.18;;
25213;SDS011;13160;51.834;4.706;2023-07-31T14:20:13;12.82;;;8.63;;
25213;SDS011;13160;51.834;4.706;2023-07-31T14:22:49;11.13;;;8.43;;
25213;SDS011;13160;51.834;4.706;2023-07-31T14:25:27;9.95;;;7.57;;
25213;SDS011;13160;51.834;4.706;2023-07-31T14:27:57;11.70;;;7.03;;
25213;SDS011;13160;51.834;4.706;2023-07-31T14:30:32;10.82;;;7.20;;
25213;SDS011;13160;51.834;4.706;2023-07-31T14:33:07;8.85;;;6.30;;
25213;SDS011;13160;51.834;4.706;2023-07-31T14:35:38;9.23;;;6.05;;
25213;SDS011;13160;51.834;4.706;2023-07-31T14:38:07;9.68;;;6.22;;
25213;SDS011;13160;51.834;4.706;2023-07-31T14:40:37;8.75;;;6.30;;
25213;SDS011;13160;51.834;4.706;2023-07-31T14:43:06;10.70;;;5.85;;
25213;SDS011;13160;51.834;4.706;2023-07-31T14:45:35;8.35;;;5.55;;
25213;SDS011;13160;51.834;4.706;2023-07-31T14:48:04;6.85;;;4.75;;
25213;SDS011;13160;51.834;4.706;2023-07-31T14:50:33;6.15;;;5.10;;
25213;SDS011;13160;51.834;4.706;2023-07-31T14:53:04;8.20;;;4.75;;
25213;SDS011;13160;51.834;4.706;2023-07-31T14:55:33;6.80;;;4.90;;
25213;SDS011;13160;51.834;4.706;2023-07-31T14:58:02;7.55;;;4.95;;
25213;SDS011;13160;51.834;4.706;2023-07-31T15:00:32;10.23;;;5.88;;
25213;SDS011;13160;51.834;4.706;2023-07-31T15:03:01;7.00;;;5.40;;
25213;SDS011;13160;51.834;4.706;2023-07-31T15:05:34;9.75;;;5.10;;
25213;SDS011;13160;51.834;4.706;2023-07-31T15:08:04;7.00;;;4.50;;
25213;SDS011;13160;51.834;4.706;2023-07-31T15:10:33;5.20;;;3.50;;
25213;SDS011;13160;51.834;4.706;2023-07-31T15:13:03;5.07;;;3.30;;
25213;SDS011;13160;51.834;4.706;2023-07-31T15:15:32;4.55;;;2.90;;
25213;SDS011;13160;51.834;4.706;2023-07-31T15:18:01;3.72;;;2.38;;
25213;SDS011;13160;51.834;4.706;2023-07-31T15:20:33;4.95;;;2.53;;
25213;SDS011;13160;51.834;4.706;2023-07-31T15:23:02;4.57;;;2.10;;
25213;SDS011;13160;51.834;4.706;2023-07-31T15:25:33;3.20;;;1.52;;
25213;SDS011;13160;51.834;4.706;2023-07-31T15:28:04;5.38;;;2.10;;
25213;SDS011;13160;51.834;4.706;2023-07-31T15:30:34;4.05;;;1.40;;
25213;SDS011;13160;51.834;4.706;2023-07-31T15:33:05;3.67;;;1.60;;
25213;SDS011;13160;51.834;4.706;2023-07-31T15:35:34;3.65;;;1.73;;
25213;SDS011;13160;51.834;4.706;2023-07-31T15:38:05;3.83;;;1.40;;
25213;SDS011;13160;51.834;4.706;2023-07-31T15:40:34;3.05;;;1.40;;